createdAt,value
2023-05-18T00:03:35.478Z,100657.4014885765
2023-05-18T00:06:35.896Z,100654.88058669041
2023-05-18T00:09:32.468Z,100660.02342088548
2023-05-18T00:12:29.020Z,100668.02715731079
2023-05-18T00:15:24.591Z,100659.28360609339
2023-05-18T00:18:25.117Z,100663.42624311348
2023-05-18T00:21:22.686Z,100664.17374875185
2023-05-18T00:24:21.220Z,100662.5934282297
2023-05-18T00:27:17.780Z,100660.61742101963
2023-05-18T00:30:14.368Z,100660.66576330827
2023-05-18T00:33:09.979Z,100662.00116103305
2023-05-18T00:36:06.481Z,100665.36087250662
2023-05-18T00:39:04.016Z,100664.07615825886
2023-05-18T00:42:00.575Z,100660.86189166966
2023-05-18T00:44:56.217Z,100666.58945971346
2023-05-18T00:47:53.751Z,100663.76439991318
2023-05-18T00:50:51.284Z,100658.2393636937
2023-05-18T00:53:47.843Z,100653.44737078606
2023-05-18T00:56:46.381Z,100654.62540859975
2023-05-18T00:59:42.943Z,100661.54055334159
2023-05-18T01:02:44.536Z,100655.77074909696
2023-05-18T01:05:41.055Z,100654.91090170982
2023-05-18T01:08:37.633Z,100657.33640980619
2023-05-18T01:11:44.148Z,100651.26821523192
2023-05-18T01:14:49.762Z,100658.0893769272
2023-05-18T01:18:00.291Z,100662.18615675248
2023-05-18T01:24:25.250Z,100669.4607104047
2023-05-18T01:27:24.806Z,100661.40814230622
2023-05-18T01:30:20.357Z,100665.60721820312
2023-05-18T01:33:17.868Z,100663.67883492449
2023-05-18T01:36:19.431Z,100666.29964379652
2023-05-18T01:39:17.001Z,100665.36073208488
2023-05-18T01:42:19.550Z,100667.63358102694
2023-05-18T01:45:22.091Z,100669.26436627252
2023-05-18T01:48:21.665Z,100677.76326307666
2023-05-18T01:51:21.221Z,100666.20089952037
2023-05-18T01:54:22.747Z,100672.08044776936
2023-05-18T01:57:21.354Z,100681.6117472597
2023-05-18T02:00:18.890Z,100684.43016223489
2023-05-18T02:03:14.568Z,100682.8029612121
2023-05-18T02:06:10.993Z,100677.31853232047
2023-05-18T02:09:06.505Z,100683.64287831893
2023-05-18T02:12:02.095Z,100681.46184862063
2023-05-18T02:14:59.664Z,100681.01705229782
2023-05-18T02:17:58.445Z,100685.9541561647
2023-05-18T02:20:58.792Z,100685.80358994646
2023-05-18T02:23:54.353Z,100685.70977961845
2023-05-18T02:26:50.889Z,100682.28715926183
2023-05-18T02:29:46.418Z,100682.67159081556
2023-05-18T02:32:42.002Z,100682.46885867845
2023-05-18T02:35:40.548Z,100684.65340924586
2023-05-18T02:38:38.136Z,100680.6496800274
2023-05-18T02:41:33.658Z,100680.65897235801
2023-05-18T02:44:29.256Z,100679.88252550177
2023-05-18T02:47:24.792Z,100684.22501201382
2023-05-18T02:50:20.348Z,100678.5928526739
2023-05-18T02:53:16.936Z,100684.21766847512
2023-05-18T02:56:12.460Z,100686.29079533691
2023-05-18T02:59:09.133Z,100681.8503660101
2023-05-18T03:02:06.617Z,100678.44244142182
2023-05-18T03:05:05.126Z,100678.34829624386
2023-05-18T03:08:01.711Z,100675.73398541563
2023-05-18T03:10:58.275Z,100680.08202165527
2023-05-18T03:13:54.852Z,100681.06704324715
2023-05-18T03:16:54.584Z,100681.6616685026
2023-05-18T03:19:50.949Z,100680.28115798674
2023-05-18T03:22:46.498Z,100687.89201372296
2023-05-18T03:25:43.077Z,100688.04094725217
2023-05-18T03:28:38.638Z,100690.16268125996
2023-05-18T03:31:34.285Z,100685.36505810737
2023-05-18T03:34:29.720Z,100691.19766968017
2023-05-18T03:37:26.344Z,100691.88726247029
2023-05-18T03:40:21.840Z,100691.99173546789
2023-05-18T03:43:17.430Z,100691.79572464532
2023-05-18T03:46:13.059Z,100702.4183334729
2023-05-18T03:49:08.577Z,100698.66626228737
2023-05-18T03:52:05.102Z,100701.72797258658
2023-05-18T03:55:01.671Z,100704.73785647098
2023-05-18T03:58:00.218Z,100701.51700274578
2023-05-18T04:00:55.760Z,100706.96647372463
2023-05-18T04:03:56.635Z,100708.45046263888
2023-05-18T04:06:53.869Z,100713.14708062769
2023-05-18T04:09:49.427Z,100720.70959358732
2023-05-18T04:15:51.552Z,100740.57898891863
2023-05-18T04:18:49.157Z,100737.99830541959
2023-05-18T04:21:47.670Z,100732.7092505953
2023-05-18T04:24:47.234Z,100733.5594198576
2023-05-18T04:27:44.775Z,100746.89490127806
2023-05-18T04:30:42.328Z,100754.86661940457
2023-05-18T04:33:38.882Z,100755.83812900339
2023-05-18T04:36:40.473Z,100756.65052638332
2023-05-18T04:39:38.997Z,100761.25496879575
2023-05-18T04:42:35.539Z,100764.70914440614
2023-05-18T04:45:34.365Z,100760.6884838439
2023-05-18T04:48:30.652Z,100764.06433521176
2023-05-18T04:51:27.271Z,100763.94446320571
2023-05-18T04:54:23.757Z,100770.78207651955
2023-05-18T04:57:19.345Z,100769.32775261467
2023-05-18T05:00:19.901Z,100776.00191258604
2023-05-18T05:03:15.441Z,100783.02410175737
2023-05-18T05:06:11.021Z,100780.49588271733
2023-05-18T05:09:06.563Z,100779.51296722132
2023-05-18T05:12:02.152Z,100778.0528816053
2023-05-18T05:14:57.672Z,100784.54515094643
2023-05-18T05:17:54.218Z,100782.24942110149
2023-05-18T05:20:50.804Z,100782.10105247311
2023-05-18T05:23:46.393Z,100794.7165731752
2023-05-18T05:26:41.970Z,100788.0470109796
2023-05-18T05:29:39.478Z,100788.17199084851
2023-05-18T05:32:36.308Z,100792.14927250778
2023-05-18T05:35:33.803Z,100793.36399433145
2023-05-18T05:38:29.135Z,100798.01556467245
2023-05-18T05:41:24.710Z,100802.35745143684
2023-05-18T05:44:20.423Z,100798.40099547348
2023-05-18T05:47:15.914Z,100805.86955672251
2023-05-18T05:50:12.380Z,100816.31934328332
2023-05-18T05:53:08.991Z,100818.01022311857
2023-05-18T05:56:04.522Z,100820.2827718018
2023-05-18T05:59:01.110Z,100822.16026103223
2023-05-18T06:01:57.667Z,100824.09365720468
2023-05-18T06:04:53.202Z,100829.10775365155
2023-05-18T06:07:49.745Z,100826.52211102314
2023-05-18T06:10:45.319Z,100836.39598216455
2023-05-18T06:13:40.870Z,100837.80696775971
2023-05-18T06:16:36.478Z,100834.86812953887
2023-05-18T06:19:33.013Z,100839.80789767526
2023-05-18T06:22:28.594Z,100844.12821371818
2023-05-18T06:25:24.150Z,100853.4373599339
2023-05-18T06:28:19.682Z,100858.97019899123
2023-05-18T06:31:18.260Z,100857.61468860302
2023-05-18T06:34:13.774Z,100862.09497138877
2023-05-18T06:37:11.370Z,100866.67539703708
2023-05-18T06:40:07.932Z,100863.75601472717
2023-05-18T06:43:04.491Z,100865.93623678164
2023-05-18T06:46:00.079Z,100873.38738581394
2023-05-18T06:48:58.595Z,100872.94000935549
2023-05-18T06:51:54.186Z,100876.7052961015
2023-05-18T06:54:50.729Z,100873.51026087515
2023-05-18T06:57:46.312Z,100875.0870007275
2023-05-18T07:00:43.820Z,100883.75842794903
2023-05-18T07:03:39.380Z,100884.62927377583
2023-05-18T07:06:35.940Z,100888.33793663072
2023-05-18T07:09:31.527Z,100889.12691619621
2023-05-18T07:12:28.089Z,100885.73644180843
2023-05-18T07:15:25.628Z,100886.91936069229
2023-05-18T07:18:21.203Z,100886.43851252245
2023-05-18T07:21:16.715Z,100881.73571136662
2023-05-18T07:24:12.355Z,100886.03577917462
2023-05-18T07:27:07.878Z,100889.2483932791
2023-05-18T07:30:05.477Z,100893.70582294025
2023-05-18T07:33:02.125Z,100890.13690651974
2023-05-18T07:35:58.558Z,100884.66865908015
2023-05-18T07:38:55.163Z,100886.92998481134
2023-05-18T07:41:50.671Z,100888.62741634481
2023-05-18T07:44:48.232Z,100891.67665419249
2023-05-18T07:47:43.920Z,100891.36060917689
2023-05-18T07:50:41.378Z,100897.31188952558
2023-05-18T07:53:37.932Z,100894.60902030997
2023-05-18T07:56:35.520Z,100893.35290511098
2023-05-18T07:59:33.147Z,100894.62962818968
2023-05-18T08:02:33.716Z,100894.66720916789
2023-05-18T08:05:29.279Z,100895.74286698573
2023-05-18T08:08:24.790Z,100911.35454269104
2023-05-18T08:11:21.334Z,100906.1446131331
2023-05-18T08:14:17.838Z,100904.36849835252
2023-05-18T08:17:13.507Z,100915.72758100682
2023-05-18T08:20:09.940Z,100916.17161584694
2023-05-18T08:23:05.506Z,100912.00963418822
2023-05-18T08:26:03.025Z,100911.80896577549
2023-05-18T08:28:58.578Z,100919.77165027993
2023-05-18T08:31:54.231Z,100920.61568704426
2023-05-18T08:34:50.720Z,100923.13936920768
2023-05-18T08:37:47.300Z,100927.5880201676
2023-05-18T08:40:46.841Z,100931.64217783365
2023-05-18T08:43:49.389Z,100934.58637406013
2023-05-18T08:46:50.927Z,100935.14806906592
2023-05-18T08:49:50.495Z,100932.86210746516
2023-05-18T08:52:52.053Z,100938.85305354188
2023-05-18T08:55:53.568Z,100939.63165768683
2023-05-18T08:58:54.281Z,100941.46780684692
2023-05-18T09:01:50.748Z,100942.19076950746
2023-05-18T09:04:48.259Z,100951.07453487464
2023-05-18T09:07:45.816Z,100950.96802629896
2023-05-18T09:10:43.410Z,100953.11970239259
2023-05-18T09:13:39.948Z,100955.95941182337
2023-05-18T09:16:35.592Z,100956.54989631637
2023-05-18T09:19:31.040Z,100958.24315546532
2023-05-18T09:22:27.600Z,100964.08436315192
2023-05-18T09:25:24.146Z,100956.79464018477
2023-05-18T09:28:25.684Z,100953.64201210388
2023-05-18T09:31:24.401Z,100952.86733531606
2023-05-18T09:34:20.819Z,100953.23420343395
2023-05-18T09:37:21.361Z,100951.46078320433
2023-05-18T09:40:18.929Z,100947.25468095565
2023-05-18T09:43:16.470Z,100952.35583749403
2023-05-18T09:46:15.064Z,100953.37040656847
2023-05-18T09:49:19.562Z,100957.8861579682
2023-05-18T09:52:15.095Z,100953.94611835494
2023-05-18T09:55:12.725Z,100955.52470875786
2023-05-18T09:58:12.230Z,100956.0448524117
2023-05-18T10:01:10.838Z,100956.24349109121
2023-05-18T10:04:09.346Z,100954.58896256614
2023-05-18T10:07:11.893Z,100962.82263422212
2023-05-18T10:13:14.981Z,100968.5292109827
2023-05-18T10:16:16.582Z,100967.21550113762
2023-05-18T10:19:13.163Z,100971.08969660848
2023-05-18T10:22:10.674Z,100981.25906350439
2023-05-18T10:25:10.160Z,100977.87933853151
2023-05-18T10:28:07.749Z,100974.74945058169
2023-05-18T10:31:06.345Z,100979.04030775689
2023-05-18T10:34:03.905Z,100974.4067136725
2023-05-18T10:37:04.414Z,100975.9818851528
2023-05-18T10:40:01.983Z,100978.5452278481
2023-05-18T10:42:58.558Z,100987.9886341028
2023-05-18T10:45:55.090Z,100985.50292182586
2023-05-18T10:48:52.668Z,100967.9557113855
2023-05-18T10:51:49.177Z,100981.73320593068
2023-05-18T10:54:45.783Z,100982.51092365017
2023-05-18T10:57:46.267Z,100974.9263729205
2023-05-18T11:00:44.862Z,100980.3699181236
2023-05-18T11:03:44.379Z,100973.34968313698
2023-05-18T11:06:41.973Z,100982.22997836764
2023-05-18T11:09:40.489Z,100971.68442552288
2023-05-18T11:12:41.059Z,100979.78185567376
2023-05-18T11:15:47.620Z,100975.04320411048
2023-05-18T11:18:46.178Z,100981.2220188822
2023-05-18T11:21:51.702Z,100983.4833496946
2023-05-18T11:24:50.292Z,100984.59730539973
2023-05-18T11:27:47.789Z,100987.03111653739
2023-05-18T11:30:51.376Z,100989.98245442791
2023-05-18T11:33:48.970Z,100993.5829356603
2023-05-18T11:36:47.449Z,100995.99066389566
2023-05-18T11:40:00.153Z,100999.73638406664
2023-05-18T11:42:58.533Z,100991.65294991403
2023-05-18T11:45:58.907Z,100989.91987243343
2023-05-18T11:48:55.724Z,100998.27660010975
2023-05-18T11:51:57.139Z,100991.86541490348
2023-05-18T11:54:56.753Z,100993.19512469694
2023-05-18T11:57:56.302Z,100997.87401855769
2023-05-18T12:00:54.836Z,100999.88843196894
2023-05-18T12:03:56.445Z,100994.88024878611
2023-05-18T12:06:54.926Z,100997.72850456824
2023-05-18T12:09:52.508Z,100993.85574184563
2023-05-18T12:12:52.060Z,100992.07883734739
2023-05-18T12:15:48.626Z,100994.03802977156
2023-05-18T12:18:49.249Z,100997.31913556266
2023-05-18T12:21:45.693Z,100983.82273711031
2023-05-18T12:24:42.424Z,100986.214552175
2023-05-18T12:27:39.843Z,100981.0365585821
2023-05-18T12:30:36.705Z,100979.98210553444
2023-05-18T12:33:34.946Z,100982.51303625239
2023-05-18T12:36:31.514Z,100978.72305753162
2023-05-18T12:39:28.777Z,100984.83147772736
2023-05-18T12:42:25.652Z,100985.6871661968
2023-05-18T12:45:23.169Z,100990.51747538896
2023-05-18T12:48:18.808Z,100983.5164100468
2023-05-18T12:51:19.288Z,100983.90279615344
2023-05-18T12:54:15.843Z,100990.53957327706
2023-05-18T12:57:26.390Z,100991.57753691179
2023-05-18T13:00:22.927Z,100993.16644923104
2023-05-18T13:03:19.611Z,100996.55789875191
2023-05-18T13:06:18.042Z,100998.12259839148
2023-05-18T13:09:14.624Z,100995.18037325381
2023-05-18T13:12:12.144Z,100996.42026692539
2023-05-18T13:15:11.924Z,100998.99026908353
2023-05-18T13:18:10.346Z,100998.72147817544
2023-05-18T13:21:06.805Z,101002.74321623705
2023-05-18T13:24:03.400Z,101003.55890031051
2023-05-18T13:26:58.919Z,101002.07256660986
2023-05-18T13:29:58.508Z,101005.84448255227
2023-05-18T13:32:54.068Z,101002.22403212952
2023-05-18T13:35:50.627Z,101011.0246756959
2023-05-18T13:38:46.170Z,101003.72655527563
2023-05-18T13:41:43.751Z,101009.6440640656
2023-05-18T13:44:39.310Z,101005.86702109076
2023-05-18T13:47:34.901Z,101008.17028803176
2023-05-18T13:50:30.588Z,101006.3501921942
2023-05-18T13:53:26.981Z,101010.91221152876
2023-05-18T13:56:23.574Z,101009.73712795063
2023-05-18T13:59:19.129Z,101007.483412379
2023-05-18T14:02:15.665Z,101008.86828721753
2023-05-18T14:05:12.211Z,101000.96007673019
2023-05-18T14:08:07.815Z,101000.56743057884
2023-05-18T14:11:03.343Z,101003.87672415399
2023-05-18T14:13:58.898Z,101008.22708411147
2023-05-18T14:16:54.504Z,101007.92337235679
2023-05-18T14:19:49.996Z,101006.32626955851
2023-05-18T14:22:47.604Z,101006.55478118228
2023-05-18T14:25:45.144Z,101011.11204800414
2023-05-18T14:28:41.697Z,101011.68991408766
2023-05-18T14:31:37.352Z,101010.58066793607
2023-05-18T14:34:32.797Z,101005.93995893555
2023-05-18T14:37:28.415Z,101009.2041967849
2023-05-18T14:40:23.947Z,101010.27104512857
2023-05-18T14:43:19.529Z,101012.468561346
2023-05-18T14:46:15.138Z,101013.89213569571
2023-05-18T14:49:10.662Z,101018.17079089498
2023-05-18T14:52:07.177Z,101017.99140947977
2023-05-18T14:55:02.778Z,101018.07148108399
2023-05-18T14:57:58.333Z,101022.30272139874
2023-05-18T15:00:56.848Z,101024.81145365156
2023-05-18T15:03:52.495Z,101024.41796669728
2023-05-18T15:06:48.027Z,101028.10563861961
2023-05-18T15:09:43.598Z,101027.82223298188
2023-05-18T15:12:39.066Z,101024.35481911084
2023-05-18T15:15:35.688Z,101023.50690026727
2023-05-18T15:18:31.253Z,101024.66324832155
2023-05-18T15:21:26.760Z,101020.71431301077
2023-05-18T15:24:24.338Z,101015.46670456333
2023-05-18T15:27:20.895Z,101011.73575414906
2023-05-18T15:30:18.484Z,101014.42166503026
2023-05-18T15:33:14.121Z,101012.59556601448
2023-05-18T15:36:10.583Z,101014.29391560993
2023-05-18T15:39:06.161Z,101012.12587004616
2023-05-18T15:42:05.659Z,101017.83133282242
2023-05-18T15:45:03.271Z,101018.59981052743
2023-05-18T15:47:58.846Z,101024.73216521188
2023-05-18T15:50:54.341Z,101027.17247379162
2023-05-18T15:53:49.919Z,101026.22979239603
2023-05-18T15:56:45.529Z,101023.87300877158
2023-05-18T15:59:41.061Z,101035.39211105039
2023-05-18T16:02:36.724Z,101034.16649046149
2023-05-18T16:05:32.187Z,101033.33375637975
2023-05-18T16:08:27.732Z,101030.63395942461
2023-05-18T16:11:23.286Z,101030.87565558865
2023-05-18T16:14:21.861Z,101030.92023361234
2023-05-18T16:17:18.462Z,101034.13351560601
2023-05-18T16:20:16.994Z,101040.69899733888
2023-05-18T16:23:12.534Z,101044.43905950051
2023-05-18T16:26:08.068Z,101044.21817977297
2023-05-18T16:29:04.690Z,101049.32952067135
2023-05-18T16:32:00.305Z,101047.41033820469
2023-05-18T16:34:55.773Z,101047.5598931941
2023-05-18T16:37:51.357Z,101045.0706376794
2023-05-18T16:40:46.877Z,101047.58987648081
2023-05-18T16:43:43.475Z,101052.9977812998
2023-05-18T16:46:39.046Z,101055.44787870998
2023-05-18T16:48:58.691Z,101053.63439996567
2023-05-18T16:51:54.236Z,101052.96687805865
2023-05-18T16:54:49.788Z,101055.41652613583
2023-05-18T16:57:45.341Z,101051.98825635831
2023-05-18T17:00:42.909Z,101055.32083727788
2023-05-18T17:03:41.580Z,101054.06753857547
2023-05-18T17:06:39.027Z,101060.04836555883
2023-05-18T17:09:34.585Z,101062.55188181868
2023-05-18T17:12:31.139Z,101064.56922975453
2023-05-18T17:15:26.745Z,101062.31200367896
2023-05-18T17:18:23.327Z,101068.12120253709
2023-05-18T17:21:18.805Z,101068.46180973358
2023-05-18T17:24:19.360Z,101068.90602901309
2023-05-18T17:27:20.942Z,101077.2241676719
2023-05-18T17:30:17.528Z,101076.22986258217
2023-05-18T17:33:13.049Z,101077.82792290293
2023-05-18T17:36:14.599Z,101082.34373700822
2023-05-18T17:39:12.149Z,101080.92379632918
2023-05-18T17:42:09.682Z,101078.69995086562
2023-05-18T17:45:11.268Z,101080.95876624415
2023-05-18T17:48:06.838Z,101091.70851212174
2023-05-18T17:51:03.380Z,101093.00229280064
2023-05-18T17:53:58.999Z,101092.003148376
2023-05-18T17:56:56.495Z,101089.14820754422
2023-05-18T17:59:56.154Z,101091.33413436277
2023-05-18T18:02:56.641Z,101090.37463428963
2023-05-18T18:05:57.135Z,101092.967660373
2023-05-18T18:08:59.727Z,101098.2617150363
2023-05-18T18:12:01.261Z,101096.52071472035
2023-05-18T18:14:56.783Z,101099.15470798458
2023-05-18T18:17:56.465Z,101101.896696143
2023-05-18T18:20:56.898Z,101104.73926890426
2023-05-18T18:23:57.497Z,101103.27969587788
2023-05-18T18:26:55.015Z,101104.77709313417
2023-05-18T18:29:51.562Z,101110.07553141883
2023-05-18T18:32:49.210Z,101118.14614831479
2023-05-18T18:35:45.706Z,101114.80454442844
2023-05-18T18:38:44.192Z,101115.5537057462
2023-05-18T18:41:41.804Z,101129.0615520078
2023-05-18T18:44:37.352Z,101136.68427837825
2023-05-18T18:47:32.912Z,101147.71015280522
2023-05-18T18:50:28.551Z,101145.96929948985
2023-05-18T18:53:24.057Z,101154.63485594268
2023-05-18T18:56:20.777Z,101151.03653607298
2023-05-18T18:59:18.135Z,101162.42590236684
2023-05-18T19:02:14.741Z,101165.06915643436
2023-05-18T19:05:10.280Z,101164.37608048576
2023-05-18T19:08:08.837Z,101164.10014141539
2023-05-18T19:11:05.368Z,101163.78339803945
2023-05-18T19:14:00.956Z,101166.13563273361
2023-05-18T19:16:57.498Z,101166.86620656148
2023-05-18T19:19:53.045Z,101164.28219798574
2023-05-18T19:22:48.616Z,101164.35395645146
2023-05-18T19:25:46.193Z,101155.66048485192
2023-05-18T19:28:41.774Z,101157.27182233406
2023-05-18T19:31:41.301Z,101169.61435629807
2023-05-18T19:34:37.839Z,101169.82633162921
2023-05-18T19:37:33.579Z,101168.61232680181
2023-05-18T19:40:28.975Z,101164.92960508633
2023-05-18T19:43:24.532Z,101175.85598431705
2023-05-18T19:46:22.166Z,101177.92032163078
2023-05-18T19:49:17.667Z,101184.27100661078
2023-05-18T19:52:15.216Z,101180.54923886048
2023-05-18T19:55:10.768Z,101179.97804265765
2023-05-18T19:58:06.334Z,101169.93607974672
2023-05-18T20:01:02.927Z,101170.98286094755
2023-05-18T20:03:59.480Z,101164.0137866367
2023-05-18T20:06:55.990Z,101160.21408164143
2023-05-18T20:09:54.603Z,101168.74540936491
2023-05-18T20:12:52.166Z,101172.47390333455
2023-05-18T20:15:49.682Z,101172.7113637846
2023-05-18T20:18:46.286Z,101174.82330341947
2023-05-18T20:21:43.805Z,101167.25196541549
2023-05-18T20:24:43.438Z,101168.01463904248
2023-05-18T20:27:38.919Z,101169.28185132782
2023-05-18T20:30:34.523Z,101161.494105127
2023-05-18T20:33:34.052Z,101165.25533490251
2023-05-18T20:36:32.579Z,101165.71016470647
2023-05-18T20:39:29.203Z,101182.99823351743
2023-05-18T20:42:29.664Z,101188.55153591324
2023-05-18T20:45:26.254Z,101177.54380201858
2023-05-18T20:48:25.775Z,101183.53919402297
2023-05-18T20:51:22.869Z,101186.92822894249
2023-05-18T20:54:20.911Z,101183.58912836899
2023-05-18T20:57:16.468Z,101181.09172715592
2023-05-18T21:00:13.093Z,101192.04016563698
2023-05-18T21:03:08.670Z,101201.91764704259
2023-05-18T21:06:06.150Z,101201.28558748368
2023-05-18T21:09:01.964Z,101194.8681895907
2023-05-18T21:11:57.275Z,101198.72223482857
2023-05-18T21:14:52.822Z,101200.33619682542
2023-05-18T21:17:48.452Z,101200.61362945684
2023-05-18T21:20:44.945Z,101198.33667236958
2023-05-18T21:23:40.514Z,101195.19119391167
2023-05-18T21:26:36.086Z,101201.19933180584
2023-05-18T21:29:31.630Z,101199.56004680239
2023-05-18T21:32:27.287Z,101201.78783033813
2023-05-18T21:35:22.804Z,101199.54655592372
2023-05-18T21:38:18.327Z,101205.91987028271
2023-05-18T21:41:13.896Z,101206.65901413224
2023-05-18T21:44:10.467Z,101207.42148988605
2023-05-18T21:47:07.007Z,101201.83112552253
2023-05-18T21:50:04.585Z,101206.86197955946
2023-05-18T21:53:02.109Z,101211.11426599413
2023-05-18T21:55:57.670Z,101205.9623702686
2023-05-18T21:58:54.219Z,101206.28674351408
2023-05-18T22:01:52.831Z,101207.19942604892
2023-05-18T22:04:48.324Z,101208.0257570266
2023-05-18T22:07:45.917Z,101210.98257022005
2023-05-18T22:10:42.487Z,101214.80844312282
2023-05-18T22:13:38.059Z,101216.11778033918
2023-05-18T22:16:33.662Z,101216.03878366694
2023-05-18T22:19:29.212Z,101213.68351298978
2023-05-18T22:22:30.555Z,101215.31769401059
2023-05-18T22:25:26.256Z,101222.82651777173
2023-05-18T22:28:21.809Z,101225.90282896605
2023-05-18T22:31:17.390Z,101226.23514833844
2023-05-18T22:34:12.946Z,101232.8333772288
2023-05-18T22:37:08.476Z,101235.63769585195
2023-05-18T22:40:06.116Z,101233.7094586176
2023-05-18T22:43:01.593Z,101236.8457575096
2023-05-18T22:45:58.245Z,101236.50135256998
2023-05-18T22:48:53.729Z,101224.00920191855
2023-05-18T22:51:53.299Z,101226.66570272464
2023-05-18T22:54:49.902Z,101213.64010351364
2023-05-18T22:57:45.378Z,101210.82150600135
2023-05-18T23:00:41.930Z,101205.61164771262
2023-05-18T23:03:37.544Z,101205.68226837374
2023-05-18T23:06:34.073Z,101213.31895922364
2023-05-18T23:09:31.685Z,101215.45457928289
2023-05-18T23:12:30.206Z,101214.50162262828
2023-05-18T23:15:26.802Z,101216.58193681718
2023-05-18T23:18:27.320Z,101211.64383358377
2023-05-18T23:21:26.852Z,101210.54387462592
2023-05-18T23:24:23.448Z,101209.83977639269
2023-05-18T23:27:19.971Z,101213.94186956389
2023-05-18T23:30:15.490Z,101218.39452350134
2023-05-18T23:33:14.271Z,101217.57697300753
2023-05-18T23:36:19.656Z,101214.11040578451
2023-05-18T23:39:17.198Z,101221.26994687904
2023-05-18T23:42:19.710Z,101212.21268650035
2023-05-18T23:45:16.272Z,101219.77736767074
2023-05-18T23:48:13.946Z,101212.21493940231
2023-05-18T23:51:16.454Z,101212.59124873471
2023-05-18T23:54:12.940Z,101203.0227384978
2023-05-18T23:57:09.486Z,101207.90527156949
